sensor_id;sensor_type;location;lat;lon;timestamp;P1;durP1;ratioP1;P2;durP2;ratioP2
5465;SDS011;2755;50.728;7.108;2022-08-03T00:01:17;2.10;;;1.70;;
5465;SDS011;2755;50.728;7.108;2022-08-03T00:03:43;3.63;;;1.70;;
5465;SDS011;2755;50.728;7.108;2022-08-03T00:06:09;2.23;;;1.73;;
5465;SDS011;2755;50.728;7.108;2022-08-03T00:08:35;1.70;;;1.50;;
5465;SDS011;2755;50.728;7.108;2022-08-03T00:11:00;1.87;;;1.77;;
5465;SDS011;2755;50.728;7.108;2022-08-03T00:13:26;2.13;;;1.93;;
5465;SDS011;2755;50.728;7.108;2022-08-03T00:15:52;2.20;;;1.70;;
5465;SDS011;2755;50.728;7.108;2022-08-03T00:18:18;2.10;;;1.90;;
5465;SDS011;2755;50.728;7.108;2022-08-03T00:20:44;1.47;;;1.37;;
5465;SDS011;2755;50.728;7.108;2022-08-03T00:23:10;2.67;;;2.00;;
5465;SDS011;2755;50.728;7.108;2022-08-03T00:25:36;3.10;;;2.20;;
5465;SDS011;2755;50.728;7.108;2022-08-03T00:28:03;2.83;;;2.13;;
5465;SDS011;2755;50.728;7.108;2022-08-03T00:30:29;1.73;;;1.63;;
5465;SDS011;2755;50.728;7.108;2022-08-03T00:32:55;3.13;;;2.30;;
5465;SDS011;2755;50.728;7.108;2022-08-03T00:35:21;2.27;;;2.00;;
5465;SDS011;2755;50.728;7.108;2022-08-03T00:37:47;1.93;;;1.60;;
5465;SDS011;2755;50.728;7.108;2022-08-03T00:40:13;2.20;;;2.00;;
5465;SDS011;2755;50.728;7.108;2022-08-03T00:42:51;3.03;;;2.27;;
5465;SDS011;2755;50.728;7.108;2022-08-03T00:45:22;3.30;;;2.10;;
5465;SDS011;2755;50.728;7.108;2022-08-03T00:47:49;2.37;;;1.90;;
5465;SDS011;2755;50.728;7.108;2022-08-03T00:50:15;2.60;;;1.83;;
5465;SDS011;2755;50.728;7.108;2022-08-03T00:52:42;5.30;;;2.57;;
5465;SDS011;2755;50.728;7.108;2022-08-03T00:55:08;5.00;;;2.80;;
5465;SDS011;2755;50.728;7.108;2022-08-03T00:57:34;3.40;;;2.30;;
5465;SDS011;2755;50.728;7.108;2022-08-03T01:00:01;2.00;;;1.80;;
5465;SDS011;2755;50.728;7.108;2022-08-03T01:02:27;2.20;;;1.97;;
5465;SDS011;2755;50.728;7.108;2022-08-03T01:04:54;1.93;;;1.60;;
5465;SDS011;2755;50.728;7.108;2022-08-03T01:13:27;3.27;;;2.07;;
5465;SDS011;2755;50.728;7.108;2022-08-03T01:16:21;3.20;;;2.30;;
5465;SDS011;2755;50.728;7.108;2022-08-03T01:18:57;2.63;;;1.90;;
5465;SDS011;2755;50.728;7.108;2022-08-03T01:24:34;1.60;;;1.50;;
5465;SDS011;2755;50.728;7.108;2022-08-03T01:27:02;3.90;;;3.20;;
5465;SDS011;2755;50.728;7.108;2022-08-03T01:32:11;4.10;;;2.10;;
5465;SDS011;2755;50.728;7.108;2022-08-03T01:34:42;2.30;;;2.10;;
5465;SDS011;2755;50.728;7.108;2022-08-03T01:37:11;2.63;;;1.83;;
5465;SDS011;2755;50.728;7.108;2022-08-03T01:39:44;2.53;;;2.10;;
5465;SDS011;2755;50.728;7.108;2022-08-03T01:42:10;2.70;;;2.10;;
5465;SDS011;2755;50.728;7.108;2022-08-03T01:44:39;2.30;;;2.10;;
5465;SDS011;2755;50.728;7.108;2022-08-03T01:47:08;3.87;;;2.20;;
5465;SDS011;2755;50.728;7.108;2022-08-03T01:49:39;3.53;;;2.23;;
5465;SDS011;2755;50.728;7.108;2022-08-03T01:52:09;1.90;;;1.70;;
5465;SDS011;2755;50.728;7.108;2022-08-03T01:54:36;3.40;;;2.53;;
5465;SDS011;2755;50.728;7.108;2022-08-03T01:57:05;2.43;;;2.00;;
5465;SDS011;2755;50.728;7.108;2022-08-03T01:59:33;2.60;;;2.10;;
5465;SDS011;2755;50.728;7.108;2022-08-03T02:02:00;2.50;;;2.27;;
5465;SDS011;2755;50.728;7.108;2022-08-03T02:04:28;2.93;;;2.10;;
5465;SDS011;2755;50.728;7.108;2022-08-03T02:06:54;2.13;;;1.93;;
5465;SDS011;2755;50.728;7.108;2022-08-03T02:09:21;2.17;;;1.97;;
5465;SDS011;2755;50.728;7.108;2022-08-03T02:11:49;4.67;;;2.33;;
5465;SDS011;2755;50.728;7.108;2022-08-03T02:14:16;4.67;;;2.00;;
5465;SDS011;2755;50.728;7.108;2022-08-03T02:16:42;2.00;;;1.70;;
5465;SDS011;2755;50.728;7.108;2022-08-03T02:19:10;2.07;;;1.87;;
5465;SDS011;2755;50.728;7.108;2022-08-03T02:21:36;4.20;;;2.13;;
5465;SDS011;2755;50.728;7.108;2022-08-03T02:24:03;2.97;;;2.30;;
5465;SDS011;2755;50.728;7.108;2022-08-03T02:26:30;4.90;;;2.10;;
5465;SDS011;2755;50.728;7.108;2022-08-03T02:28:57;3.77;;;3.20;;
5465;SDS011;2755;50.728;7.108;2022-08-03T02:31:27;3.00;;;2.50;;
5465;SDS011;2755;50.728;7.108;2022-08-03T02:34:00;2.33;;;2.13;;
5465;SDS011;2755;50.728;7.108;2022-08-03T02:36:29;2.53;;;2.03;;
5465;SDS011;2755;50.728;7.108;2022-08-03T02:38:59;5.03;;;2.40;;
5465;SDS011;2755;50.728;7.108;2022-08-03T02:41:30;2.37;;;2.07;;
5465;SDS011;2755;50.728;7.108;2022-08-03T02:44:00;2.10;;;1.90;;
5465;SDS011;2755;50.728;7.108;2022-08-03T02:46:29;2.10;;;1.90;;
5465;SDS011;2755;50.728;7.108;2022-08-03T02:48:58;2.83;;;2.40;;
5465;SDS011;2755;50.728;7.108;2022-08-03T02:51:26;2.80;;;2.27;;
5465;SDS011;2755;50.728;7.108;2022-08-03T02:53:54;2.33;;;2.10;;
5465;SDS011;2755;50.728;7.108;2022-08-03T02:56:22;2.30;;;2.10;;
5465;SDS011;2755;50.728;7.108;2022-08-03T02:58:49;2.37;;;1.87;;
5465;SDS011;2755;50.728;7.108;2022-08-03T03:01:18;2.30;;;2.10;;
5465;SDS011;2755;50.728;7.108;2022-08-03T03:03:46;3.77;;;2.40;;
5465;SDS011;2755;50.728;7.108;2022-08-03T03:06:13;2.00;;;1.80;;
5465;SDS011;2755;50.728;7.108;2022-08-03T03:08:41;3.13;;;2.03;;
5465;SDS011;2755;50.728;7.108;2022-08-03T03:11:07;3.23;;;1.80;;
5465;SDS011;2755;50.728;7.108;2022-08-03T03:13:34;3.00;;;2.50;;
5465;SDS011;2755;50.728;7.108;2022-08-03T03:16:02;2.23;;;2.00;;
5465;SDS011;2755;50.728;7.108;2022-08-03T03:18:30;2.43;;;2.17;;
5465;SDS011;2755;50.728;7.108;2022-08-03T03:20:58;2.50;;;2.10;;
5465;SDS011;2755;50.728;7.108;2022-08-03T03:23:26;2.73;;;2.33;;
5465;SDS011;2755;50.728;7.108;2022-08-03T03:25:53;2.43;;;2.00;;
5465;SDS011;2755;50.728;7.108;2022-08-03T03:28:20;2.87;;;2.00;;
5465;SDS011;2755;50.728;7.108;2022-08-03T03:30:49;3.63;;;2.50;;
5465;SDS011;2755;50.728;7.108;2022-08-03T03:33:14;2.97;;;2.67;;
5465;SDS011;2755;50.728;7.108;2022-08-03T03:35:41;2.17;;;1.87;;
5465;SDS011;2755;50.728;7.108;2022-08-03T03:38:08;2.43;;;2.00;;
5465;SDS011;2755;50.728;7.108;2022-08-03T03:40:34;3.50;;;2.60;;
5465;SDS011;2755;50.728;7.108;2022-08-03T03:43:01;3.43;;;2.63;;
5465;SDS011;2755;50.728;7.108;2022-08-03T03:45:27;2.57;;;2.37;;
5465;SDS011;2755;50.728;7.108;2022-08-03T03:47:54;2.30;;;2.03;;
5465;SDS011;2755;50.728;7.108;2022-08-03T03:50:20;4.07;;;2.53;;
5465;SDS011;2755;50.728;7.108;2022-08-03T03:52:46;2.97;;;2.10;;
5465;SDS011;2755;50.728;7.108;2022-08-03T03:55:15;2.67;;;2.30;;
5465;SDS011;2755;50.728;7.108;2022-08-03T03:57:42;4.90;;;2.37;;
5465;SDS011;2755;50.728;7.108;2022-08-03T04:00:08;2.43;;;2.03;;
5465;SDS011;2755;50.728;7.108;2022-08-03T04:02:34;2.67;;;2.47;;
5465;SDS011;2755;50.728;7.108;2022-08-03T04:05:00;2.47;;;2.27;;
5465;SDS011;2755;50.728;7.108;2022-08-03T04:08:26;3.90;;;3.10;;
5465;SDS011;2755;50.728;7.108;2022-08-03T04:11:04;2.93;;;2.50;;
5465;SDS011;2755;50.728;7.108;2022-08-03T04:13:38;2.57;;;2.17;;
5465;SDS011;2755;50.728;7.108;2022-08-03T04:16:08;3.47;;;2.73;;
5465;SDS011;2755;50.728;7.108;2022-08-03T04:18:37;3.00;;;2.40;;
5465;SDS011;2755;50.728;7.108;2022-08-03T04:21:07;2.83;;;2.43;;
5465;SDS011;2755;50.728;7.108;2022-08-03T04:23:36;3.97;;;2.53;;
5465;SDS011;2755;50.728;7.108;2022-08-03T04:26:06;2.23;;;2.03;;
5465;SDS011;2755;50.728;7.108;2022-08-03T04:28:36;4.63;;;2.73;;
5465;SDS011;2755;50.728;7.108;2022-08-03T04:31:05;3.90;;;2.70;;
5465;SDS011;2755;50.728;7.108;2022-08-03T04:33:31;3.57;;;2.60;;
5465;SDS011;2755;50.728;7.108;2022-08-03T04:35:59;6.93;;;2.60;;
5465;SDS011;2755;50.728;7.108;2022-08-03T04:38:26;2.53;;;2.33;;
5465;SDS011;2755;50.728;7.108;2022-08-03T04:40:55;4.83;;;3.00;;
5465;SDS011;2755;50.728;7.108;2022-08-03T04:43:21;5.73;;;2.50;;
5465;SDS011;2755;50.728;7.108;2022-08-03T04:45:48;3.73;;;2.10;;
5465;SDS011;2755;50.728;7.108;2022-08-03T04:48:15;3.37;;;2.77;;
5465;SDS011;2755;50.728;7.108;2022-08-03T04:50:41;3.30;;;2.80;;
5465;SDS011;2755;50.728;7.108;2022-08-03T04:53:07;2.50;;;2.30;;
5465;SDS011;2755;50.728;7.108;2022-08-03T04:55:33;3.77;;;2.90;;
5465;SDS011;2755;50.728;7.108;2022-08-03T04:58:00;3.63;;;2.83;;
5465;SDS011;2755;50.728;7.108;2022-08-03T05:00:26;2.53;;;2.33;;
5465;SDS011;2755;50.728;7.108;2022-08-03T05:02:52;2.67;;;2.10;;
5465;SDS011;2755;50.728;7.108;2022-08-03T05:05:18;3.10;;;2.80;;
5465;SDS011;2755;50.728;7.108;2022-08-03T05:07:44;3.10;;;2.60;;
5465;SDS011;2755;50.728;7.108;2022-08-03T05:10:10;2.43;;;2.23;;
5465;SDS011;2755;50.728;7.108;2022-08-03T05:12:37;3.67;;;2.50;;
5465;SDS011;2755;50.728;7.108;2022-08-03T05:15:06;2.90;;;2.53;;
5465;SDS011;2755;50.728;7.108;2022-08-03T05:17:32;3.07;;;2.60;;
5465;SDS011;2755;50.728;7.108;2022-08-03T05:19:58;2.67;;;2.13;;
5465;SDS011;2755;50.728;7.108;2022-08-03T05:22:24;2.70;;;2.37;;
5465;SDS011;2755;50.728;7.108;2022-08-03T05:24:49;4.13;;;2.77;;
5465;SDS011;2755;50.728;7.108;2022-08-03T05:27:15;5.20;;;3.50;;
5465;SDS011;2755;50.728;7.108;2022-08-03T05:29:43;11.77;;;3.13;;
5465;SDS011;2755;50.728;7.108;2022-08-03T05:32:13;6.43;;;2.93;;
5465;SDS011;2755;50.728;7.108;2022-08-03T05:34:39;3.63;;;3.03;;
5465;SDS011;2755;50.728;7.108;2022-08-03T05:37:05;2.23;;;2.03;;
5465;SDS011;2755;50.728;7.108;2022-08-03T05:39:31;3.00;;;2.70;;
5465;SDS011;2755;50.728;7.108;2022-08-03T05:41:57;3.93;;;2.70;;
5465;SDS011;2755;50.728;7.108;2022-08-03T05:44:23;5.13;;;2.47;;
5465;SDS011;2755;50.728;7.108;2022-08-03T05:46:49;3.00;;;1.90;;
5465;SDS011;2755;50.728;7.108;2022-08-03T05:49:15;3.07;;;2.40;;
5465;SDS011;2755;50.728;7.108;2022-08-03T05:51:41;6.37;;;2.60;;
5465;SDS011;2755;50.728;7.108;2022-08-03T05:54:07;2.83;;;2.17;;
5465;SDS011;2755;50.728;7.108;2022-08-03T05:56:32;2.70;;;2.17;;
5465;SDS011;2755;50.728;7.108;2022-08-03T05:58:58;2.70;;;1.93;;
5465;SDS011;2755;50.728;7.108;2022-08-03T06:01:24;5.37;;;2.20;;
5465;SDS011;2755;50.728;7.108;2022-08-03T06:03:50;3.60;;;2.47;;
5465;SDS011;2755;50.728;7.108;2022-08-03T06:06:16;2.63;;;1.90;;
5465;SDS011;2755;50.728;7.108;2022-08-03T06:08:42;3.63;;;2.30;;
5465;SDS011;2755;50.728;7.108;2022-08-03T06:11:08;3.37;;;2.33;;
5465;SDS011;2755;50.728;7.108;2022-08-03T06:13:33;3.47;;;2.30;;
5465;SDS011;2755;50.728;7.108;2022-08-03T06:15:59;2.07;;;1.80;;
5465;SDS011;2755;50.728;7.108;2022-08-03T06:18:25;5.33;;;2.33;;
5465;SDS011;2755;50.728;7.108;2022-08-03T06:20:51;4.00;;;2.07;;
5465;SDS011;2755;50.728;7.108;2022-08-03T06:23:17;5.53;;;3.07;;
5465;SDS011;2755;50.728;7.108;2022-08-03T06:25:43;3.00;;;2.10;;
5465;SDS011;2755;50.728;7.108;2022-08-03T06:28:09;1.90;;;1.80;;
5465;SDS011;2755;50.728;7.108;2022-08-03T06:30:36;2.87;;;2.10;;
5465;SDS011;2755;50.728;7.108;2022-08-03T06:33:05;6.33;;;2.37;;
5465;SDS011;2755;50.728;7.108;2022-08-03T06:35:33;2.17;;;1.87;;
5465;SDS011;2755;50.728;7.108;2022-08-03T06:37:58;3.33;;;1.47;;
5465;SDS011;2755;50.728;7.108;2022-08-03T06:40:24;3.33;;;1.97;;
5465;SDS011;2755;50.728;7.108;2022-08-03T06:42:55;3.30;;;2.10;;
5465;SDS011;2755;50.728;7.108;2022-08-03T06:45:22;3.10;;;2.07;;
5465;SDS011;2755;50.728;7.108;2022-08-03T06:47:58;7.13;;;2.00;;
5465;SDS011;2755;50.728;7.108;2022-08-03T06:50:24;4.63;;;2.40;;
5465;SDS011;2755;50.728;7.108;2022-08-03T06:52:50;4.03;;;2.63;;
5465;SDS011;2755;50.728;7.108;2022-08-03T06:55:16;4.80;;;1.90;;
5465;SDS011;2755;50.728;7.108;2022-08-03T06:57:41;3.73;;;2.00;;
5465;SDS011;2755;50.728;7.108;2022-08-03T07:00:07;4.10;;;2.20;;
5465;SDS011;2755;50.728;7.108;2022-08-03T07:02:34;2.13;;;1.70;;
5465;SDS011;2755;50.728;7.108;2022-08-03T07:04:59;4.37;;;2.60;;
5465;SDS011;2755;50.728;7.108;2022-08-03T07:07:25;3.30;;;1.80;;
5465;SDS011;2755;50.728;7.108;2022-08-03T07:09:51;4.90;;;2.70;;
5465;SDS011;2755;50.728;7.108;2022-08-03T07:15:00;7.70;;;2.13;;
5465;SDS011;2755;50.728;7.108;2022-08-03T07:17:26;3.43;;;2.07;;
5465;SDS011;2755;50.728;7.108;2022-08-03T07:19:53;2.47;;;1.60;;
5465;SDS011;2755;50.728;7.108;2022-08-03T07:22:18;4.40;;;2.30;;
5465;SDS011;2755;50.728;7.108;2022-08-03T07:24:44;7.57;;;2.17;;
5465;SDS011;2755;50.728;7.108;2022-08-03T07:27:11;2.37;;;1.87;;
5465;SDS011;2755;50.728;7.108;2022-08-03T07:29:37;3.20;;;2.30;;
5465;SDS011;2755;50.728;7.108;2022-08-03T07:32:03;4.80;;;1.90;;
5465;SDS011;2755;50.728;7.108;2022-08-03T07:34:29;3.17;;;1.80;;
5465;SDS011;2755;50.728;7.108;2022-08-03T07:36:56;3.20;;;1.90;;
5465;SDS011;2755;50.728;7.108;2022-08-03T07:39:22;3.00;;;1.93;;
5465;SDS011;2755;50.728;7.108;2022-08-03T07:41:47;4.60;;;2.17;;
5465;SDS011;2755;50.728;7.108;2022-08-03T07:44:16;3.93;;;2.20;;
5465;SDS011;2755;50.728;7.108;2022-08-03T07:46:42;4.47;;;1.90;;
5465;SDS011;2755;50.728;7.108;2022-08-03T07:49:08;3.40;;;2.00;;
5465;SDS011;2755;50.728;7.108;2022-08-03T07:51:34;2.10;;;1.90;;
5465;SDS011;2755;50.728;7.108;2022-08-03T07:54:00;3.13;;;2.00;;
5465;SDS011;2755;50.728;7.108;2022-08-03T07:56:26;3.00;;;2.10;;
5465;SDS011;2755;50.728;7.108;2022-08-03T07:58:52;3.63;;;1.53;;
5465;SDS011;2755;50.728;7.108;2022-08-03T08:01:18;2.53;;;1.70;;
5465;SDS011;2755;50.728;7.108;2022-08-03T08:03:45;2.30;;;1.80;;
5465;SDS011;2755;50.728;7.108;2022-08-03T08:06:11;3.90;;;1.70;;
5465;SDS011;2755;50.728;7.108;2022-08-03T08:08:37;2.30;;;2.10;;
5465;SDS011;2755;50.728;7.108;2022-08-03T08:11:03;3.70;;;1.90;;
5465;SDS011;2755;50.728;7.108;2022-08-03T08:13:29;5.53;;;2.00;;
5465;SDS011;2755;50.728;7.108;2022-08-03T08:15:55;2.30;;;1.70;;
5465;SDS011;2755;50.728;7.108;2022-08-03T08:18:21;2.70;;;1.60;;
5465;SDS011;2755;50.728;7.108;2022-08-03T08:20:48;5.43;;;1.77;;
5465;SDS011;2755;50.728;7.108;2022-08-03T08:23:13;3.07;;;1.73;;
5465;SDS011;2755;50.728;7.108;2022-08-03T08:25:39;4.83;;;2.00;;
5465;SDS011;2755;50.728;7.108;2022-08-03T08:28:05;2.80;;;1.87;;
5465;SDS011;2755;50.728;7.108;2022-08-03T08:30:31;4.57;;;1.67;;
5465;SDS011;2755;50.728;7.108;2022-08-03T08:32:58;3.00;;;1.73;;
5465;SDS011;2755;50.728;7.108;2022-08-03T08:35:24;4.83;;;1.80;;
5465;SDS011;2755;50.728;7.108;2022-08-03T08:37:49;3.07;;;1.90;;
5465;SDS011;2755;50.728;7.108;2022-08-03T08:40:15;3.87;;;2.10;;
5465;SDS011;2755;50.728;7.108;2022-08-03T08:42:44;3.00;;;1.77;;
5465;SDS011;2755;50.728;7.108;2022-08-03T08:45:11;4.20;;;2.07;;
5465;SDS011;2755;50.728;7.108;2022-08-03T08:47:39;3.20;;;2.10;;
5465;SDS011;2755;50.728;7.108;2022-08-03T08:50:08;3.37;;;1.60;;
5465;SDS011;2755;50.728;7.108;2022-08-03T08:52:35;2.00;;;1.60;;
5465;SDS011;2755;50.728;7.108;2022-08-03T08:55:04;5.33;;;1.77;;
5465;SDS011;2755;50.728;7.108;2022-08-03T08:57:35;4.27;;;1.80;;
5465;SDS011;2755;50.728;7.108;2022-08-03T09:00:06;5.30;;;2.00;;
5465;SDS011;2755;50.728;7.108;2022-08-03T09:02:35;9.60;;;1.83;;
5465;SDS011;2755;50.728;7.108;2022-08-03T09:05:01;2.37;;;1.57;;
5465;SDS011;2755;50.728;7.108;2022-08-03T09:07:27;6.50;;;1.70;;
5465;SDS011;2755;50.728;7.108;2022-08-03T09:09:54;3.60;;;1.40;;
5465;SDS011;2755;50.728;7.108;2022-08-03T09:12:20;2.00;;;1.33;;
5465;SDS011;2755;50.728;7.108;2022-08-03T09:14:45;3.10;;;1.73;;
5465;SDS011;2755;50.728;7.108;2022-08-03T09:17:11;2.83;;;1.37;;
5465;SDS011;2755;50.728;7.108;2022-08-03T09:19:37;1.37;;;1.27;;
5465;SDS011;2755;50.728;7.108;2022-08-03T09:24:57;8.77;;;1.93;;
5465;SDS011;2755;50.728;7.108;2022-08-03T09:27:42;4.27;;;1.70;;
5465;SDS011;2755;50.728;7.108;2022-08-03T09:30:15;1.50;;;1.37;;
5465;SDS011;2755;50.728;7.108;2022-08-03T09:32:42;3.50;;;1.70;;
5465;SDS011;2755;50.728;7.108;2022-08-03T09:35:10;4.90;;;1.60;;
5465;SDS011;2755;50.728;7.108;2022-08-03T09:37:37;5.50;;;1.70;;
5465;SDS011;2755;50.728;7.108;2022-08-03T09:40:03;10.43;;;1.90;;
5465;SDS011;2755;50.728;7.108;2022-08-03T09:42:29;2.90;;;1.57;;
5465;SDS011;2755;50.728;7.108;2022-08-03T09:44:55;4.33;;;1.90;;
5465;SDS011;2755;50.728;7.108;2022-08-03T09:47:32;2.87;;;1.70;;
5465;SDS011;2755;50.728;7.108;2022-08-03T09:50:03;1.63;;;1.50;;
5465;SDS011;2755;50.728;7.108;2022-08-03T09:55:01;2.57;;;1.90;;
5465;SDS011;2755;50.728;7.108;2022-08-03T09:57:33;2.60;;;1.23;;
5465;SDS011;2755;50.728;7.108;2022-08-03T10:00:14;3.27;;;1.70;;
5465;SDS011;2755;50.728;7.108;2022-08-03T10:02:41;2.67;;;1.27;;
5465;SDS011;2755;50.728;7.108;2022-08-03T10:05:09;1.93;;;1.40;;
5465;SDS011;2755;50.728;7.108;2022-08-03T10:07:42;2.57;;;1.27;;
5465;SDS011;2755;50.728;7.108;2022-08-03T10:10:10;3.60;;;1.37;;
5465;SDS011;2755;50.728;7.108;2022-08-03T10:12:36;6.10;;;1.27;;
5465;SDS011;2755;50.728;7.108;2022-08-03T10:15:03;4.60;;;1.33;;
5465;SDS011;2755;50.728;7.108;2022-08-03T10:17:29;4.33;;;1.87;;
5465;SDS011;2755;50.728;7.108;2022-08-03T10:19:55;5.27;;;1.60;;
5465;SDS011;2755;50.728;7.108;2022-08-03T10:22:23;2.70;;;1.53;;
5465;SDS011;2755;50.728;7.108;2022-08-03T10:27:21;5.10;;;1.37;;
5465;SDS011;2755;50.728;7.108;2022-08-03T10:29:51;2.57;;;1.90;;
5465;SDS011;2755;50.728;7.108;2022-08-03T10:32:27;3.90;;;1.60;;
5465;SDS011;2755;50.728;7.108;2022-08-03T10:35:01;2.17;;;1.47;;
5465;SDS011;2755;50.728;7.108;2022-08-03T10:37:32;4.83;;;1.63;;
5465;SDS011;2755;50.728;7.108;2022-08-03T10:40:04;2.20;;;1.50;;
5465;SDS011;2755;50.728;7.108;2022-08-03T10:42:32;2.20;;;1.53;;
5465;SDS011;2755;50.728;7.108;2022-08-03T10:45:06;6.83;;;1.37;;
5465;SDS011;2755;50.728;7.108;2022-08-03T10:47:36;2.53;;;1.33;;
5465;SDS011;2755;50.728;7.108;2022-08-03T10:50:05;4.10;;;1.53;;
5465;SDS011;2755;50.728;7.108;2022-08-03T10:52:31;2.93;;;1.37;;
5465;SDS011;2755;50.728;7.108;2022-08-03T10:54:57;3.03;;;1.30;;
5465;SDS011;2755;50.728;7.108;2022-08-03T10:57:52;4.30;;;1.10;;
5465;SDS011;2755;50.728;7.108;2022-08-03T11:00:22;2.47;;;1.10;;
5465;SDS011;2755;50.728;7.108;2022-08-03T11:03:05;2.43;;;1.60;;
5465;SDS011;2755;50.728;7.108;2022-08-03T11:05:33;3.77;;;1.53;;
5465;SDS011;2755;50.728;7.108;2022-08-03T11:08:16;2.93;;;1.70;;
5465;SDS011;2755;50.728;7.108;2022-08-03T11:10:43;8.10;;;1.57;;
5465;SDS011;2755;50.728;7.108;2022-08-03T11:13:10;3.27;;;1.70;;
5465;SDS011;2755;50.728;7.108;2022-08-03T11:15:39;5.17;;;1.40;;
5465;SDS011;2755;50.728;7.108;2022-08-03T11:18:09;2.73;;;1.53;;
5465;SDS011;2755;50.728;7.108;2022-08-03T11:26:11;2.27;;;1.40;;
5465;SDS011;2755;50.728;7.108;2022-08-03T11:28:37;3.67;;;1.57;;
5465;SDS011;2755;50.728;7.108;2022-08-03T11:34:04;4.60;;;1.60;;
5465;SDS011;2755;50.728;7.108;2022-08-03T11:39:41;2.87;;;1.60;;
5465;SDS011;2755;50.728;7.108;2022-08-03T11:44:47;3.83;;;1.83;;
5465;SDS011;2755;50.728;7.108;2022-08-03T11:47:14;1.57;;;1.20;;
5465;SDS011;2755;50.728;7.108;2022-08-03T11:49:43;1.57;;;1.03;;
5465;SDS011;2755;50.728;7.108;2022-08-03T11:52:12;2.63;;;1.37;;
5465;SDS011;2755;50.728;7.108;2022-08-03T11:54:38;2.17;;;1.20;;
5465;SDS011;2755;50.728;7.108;2022-08-03T11:57:04;3.27;;;1.47;;
5465;SDS011;2755;50.728;7.108;2022-08-03T11:59:31;3.83;;;1.40;;
5465;SDS011;2755;50.728;7.108;2022-08-03T12:05:18;2.10;;;0.93;;
5465;SDS011;2755;50.728;7.108;2022-08-03T12:07:26;4.70;;;1.47;;
5465;SDS011;2755;50.728;7.108;2022-08-03T12:12:38;2.50;;;1.00;;
5465;SDS011;2755;50.728;7.108;2022-08-03T12:15:05;3.30;;;1.30;;
5465;SDS011;2755;50.728;7.108;2022-08-03T12:17:35;7.27;;;1.50;;
5465;SDS011;2755;50.728;7.108;2022-08-03T12:20:01;2.60;;;1.33;;
5465;SDS011;2755;50.728;7.108;2022-08-03T12:22:47;6.53;;;1.50;;
5465;SDS011;2755;50.728;7.108;2022-08-03T12:25:20;4.03;;;1.20;;
5465;SDS011;2755;50.728;7.108;2022-08-03T12:27:50;7.13;;;1.77;;
5465;SDS011;2755;50.728;7.108;2022-08-03T12:30:17;2.10;;;1.17;;
5465;SDS011;2755;50.728;7.108;2022-08-03T12:32:43;4.33;;;1.40;;
5465;SDS011;2755;50.728;7.108;2022-08-03T12:35:09;8.70;;;1.30;;
5465;SDS011;2755;50.728;7.108;2022-08-03T12:37:50;4.57;;;1.00;;
5465;SDS011;2755;50.728;7.108;2022-08-03T12:40:25;3.70;;;1.60;;
5465;SDS011;2755;50.728;7.108;2022-08-03T12:42:51;2.13;;;1.00;;
5465;SDS011;2755;50.728;7.108;2022-08-03T12:47:56;5.30;;;1.17;;
5465;SDS011;2755;50.728;7.108;2022-08-03T12:50:29;4.33;;;1.43;;
5465;SDS011;2755;50.728;7.108;2022-08-03T12:52:56;3.60;;;1.40;;
5465;SDS011;2755;50.728;7.108;2022-08-03T12:55:23;2.10;;;1.30;;
5465;SDS011;2755;50.728;7.108;2022-08-03T12:57:51;4.93;;;1.20;;
5465;SDS011;2755;50.728;7.108;2022-08-03T13:00:17;2.57;;;1.10;;
5465;SDS011;2755;50.728;7.108;2022-08-03T13:02:43;4.03;;;1.30;;
5465;SDS011;2755;50.728;7.108;2022-08-03T13:05:11;2.13;;;1.20;;
5465;SDS011;2755;50.728;7.108;2022-08-03T13:07:40;1.73;;;1.00;;
5465;SDS011;2755;50.728;7.108;2022-08-03T13:10:10;2.37;;;1.43;;
5465;SDS011;2755;50.728;7.108;2022-08-03T13:12:46;3.90;;;1.40;;
5465;SDS011;2755;50.728;7.108;2022-08-03T13:15:14;4.10;;;0.90;;
5465;SDS011;2755;50.728;7.108;2022-08-03T13:17:40;2.70;;;0.90;;
5465;SDS011;2755;50.728;7.108;2022-08-03T13:20:06;4.10;;;1.10;;
5465;SDS011;2755;50.728;7.108;2022-08-03T13:22:32;2.40;;;1.10;;
5465;SDS011;2755;50.728;7.108;2022-08-03T13:24:58;6.70;;;1.33;;
5465;SDS011;2755;50.728;7.108;2022-08-03T13:27:26;1.97;;;1.10;;
5465;SDS011;2755;50.728;7.108;2022-08-03T13:29:52;6.20;;;1.23;;
5465;SDS011;2755;50.728;7.108;2022-08-03T13:32:18;2.43;;;1.00;;
5465;SDS011;2755;50.728;7.108;2022-08-03T13:34:44;2.60;;;1.00;;
5465;SDS011;2755;50.728;7.108;2022-08-03T13:37:11;3.33;;;1.10;;
5465;SDS011;2755;50.728;7.108;2022-08-03T13:39:37;3.63;;;1.10;;
5465;SDS011;2755;50.728;7.108;2022-08-03T13:42:03;2.40;;;1.20;;
5465;SDS011;2755;50.728;7.108;2022-08-03T13:44:29;3.10;;;1.33;;
5465;SDS011;2755;50.728;7.108;2022-08-03T13:46:55;5.10;;;1.50;;
5465;SDS011;2755;50.728;7.108;2022-08-03T13:49:21;5.70;;;1.13;;
5465;SDS011;2755;50.728;7.108;2022-08-03T13:51:47;2.20;;;1.23;;
5465;SDS011;2755;50.728;7.108;2022-08-03T13:54:14;2.47;;;1.40;;
5465;SDS011;2755;50.728;7.108;2022-08-03T13:56:40;3.23;;;1.30;;
5465;SDS011;2755;50.728;7.108;2022-08-03T13:59:05;1.67;;;1.07;;
5465;SDS011;2755;50.728;7.108;2022-08-03T14:01:31;1.30;;;1.10;;
5465;SDS011;2755;50.728;7.108;2022-08-03T14:03:57;3.17;;;1.30;;
5465;SDS011;2755;50.728;7.108;2022-08-03T14:06:24;2.67;;;1.40;;
5465;SDS011;2755;50.728;7.108;2022-08-03T14:11:20;2.13;;;1.10;;
5465;SDS011;2755;50.728;7.108;2022-08-03T14:13:45;1.73;;;1.20;;
5465;SDS011;2755;50.728;7.108;2022-08-03T14:16:12;4.93;;;1.37;;
5465;SDS011;2755;50.728;7.108;2022-08-03T14:18:37;2.10;;;1.10;;
5465;SDS011;2755;50.728;7.108;2022-08-03T14:21:04;2.23;;;1.20;;
5465;SDS011;2755;50.728;7.108;2022-08-03T14:23:30;3.10;;;1.30;;
5465;SDS011;2755;50.728;7.108;2022-08-03T14:25:56;5.30;;;1.43;;
5465;SDS011;2755;50.728;7.108;2022-08-03T14:28:22;2.20;;;1.07;;
5465;SDS011;2755;50.728;7.108;2022-08-03T14:30:49;1.33;;;0.97;;
5465;SDS011;2755;50.728;7.108;2022-08-03T14:33:16;4.07;;;1.33;;
5465;SDS011;2755;50.728;7.108;2022-08-03T14:35:41;1.50;;;0.90;;
5465;SDS011;2755;50.728;7.108;2022-08-03T14:38:07;7.20;;;1.60;;
5465;SDS011;2755;50.728;7.108;2022-08-03T14:40:33;5.70;;;1.27;;
5465;SDS011;2755;50.728;7.108;2022-08-03T14:42:59;1.40;;;1.07;;
5465;SDS011;2755;50.728;7.108;2022-08-03T14:45:26;3.27;;;1.40;;
5465;SDS011;2755;50.728;7.108;2022-08-03T14:47:52;2.17;;;1.23;;
5465;SDS011;2755;50.728;7.108;2022-08-03T14:50:17;1.57;;;0.80;;
5465;SDS011;2755;50.728;7.108;2022-08-03T14:52:43;2.23;;;1.30;;
5465;SDS011;2755;50.728;7.108;2022-08-03T14:55:08;1.90;;;1.40;;
5465;SDS011;2755;50.728;7.108;2022-08-03T14:57:34;4.60;;;1.20;;
5465;SDS011;2755;50.728;7.108;2022-08-03T15:00:00;1.13;;;1.00;;
5465;SDS011;2755;50.728;7.108;2022-08-03T15:02:26;2.90;;;1.00;;
5465;SDS011;2755;50.728;7.108;2022-08-03T15:04:54;2.40;;;1.40;;
5465;SDS011;2755;50.728;7.108;2022-08-03T15:07:20;4.33;;;1.03;;
5465;SDS011;2755;50.728;7.108;2022-08-03T15:09:45;1.77;;;0.80;;
5465;SDS011;2755;50.728;7.108;2022-08-03T15:12:12;1.00;;;0.80;;
5465;SDS011;2755;50.728;7.108;2022-08-03T15:14:38;1.17;;;0.87;;
5465;SDS011;2755;50.728;7.108;2022-08-03T15:17:04;2.93;;;1.43;;
5465;SDS011;2755;50.728;7.108;2022-08-03T15:19:31;1.20;;;0.93;;
5465;SDS011;2755;50.728;7.108;2022-08-03T15:21:56;3.23;;;1.13;;
5465;SDS011;2755;50.728;7.108;2022-08-03T15:24:22;2.80;;;1.17;;
5465;SDS011;2755;50.728;7.108;2022-08-03T15:26:49;1.77;;;1.10;;
5465;SDS011;2755;50.728;7.108;2022-08-03T15:29:16;1.57;;;0.87;;
5465;SDS011;2755;50.728;7.108;2022-08-03T15:31:42;3.07;;;1.37;;
5465;SDS011;2755;50.728;7.108;2022-08-03T15:34:08;3.17;;;1.10;;
5465;SDS011;2755;50.728;7.108;2022-08-03T15:36:35;5.43;;;1.40;;
5465;SDS011;2755;50.728;7.108;2022-08-03T15:39:01;1.30;;;1.10;;
5465;SDS011;2755;50.728;7.108;2022-08-03T15:41:28;1.83;;;1.30;;
5465;SDS011;2755;50.728;7.108;2022-08-03T15:43:54;1.60;;;1.10;;
5465;SDS011;2755;50.728;7.108;2022-08-03T15:46:19;3.40;;;1.20;;
5465;SDS011;2755;50.728;7.108;2022-08-03T15:48:45;4.30;;;1.20;;
5465;SDS011;2755;50.728;7.108;2022-08-03T15:51:11;1.60;;;0.80;;
5465;SDS011;2755;50.728;7.108;2022-08-03T15:53:36;6.47;;;1.13;;
5465;SDS011;2755;50.728;7.108;2022-08-03T15:56:02;1.50;;;0.97;;
5465;SDS011;2755;50.728;7.108;2022-08-03T15:58:28;2.17;;;1.00;;
5465;SDS011;2755;50.728;7.108;2022-08-03T16:00:58;2.23;;;1.10;;
5465;SDS011;2755;50.728;7.108;2022-08-03T16:03:26;1.20;;;0.97;;
5465;SDS011;2755;50.728;7.108;2022-08-03T16:05:52;3.17;;;1.10;;